Impacts METAR Board
IDs:

KSTL - St Louis/Lambert Int, MO, US

Updated at: 0200 UTC 20 Mar 2019
Potential Impact None Slight Moderate High
Time 19/14Z 19/15Z 19/16Z 19/17Z 19/18Z 19/19Z 19/20Z 19/21Z 19/22Z 19/23Z 20/00Z 20/01Z 20/02Z
Temp42 47 50 52 53 53 53 55 56 56 53 53 51
Dewpt26 25 23 25 25 26 27 27 27 27 28 29 30
Altim30.41 30.42 30.41 30.40 30.39 30.36 30.33 30.30 30.28 30.27 30.27 30.25 30.25
VIS10 10 10 10 10 10 10 10 10 10 10 10 10
CIG250 250 250 230 100 80 70 65 60 120 55 110 150
CoverBKNBKNBKNOVCOVCOVCOVCOVCOVCOVCOVCOVCOVC
FltCatVFRVFRVFRVFRVFRVFRVFRVFRVFRVFRVFRVFRVFR
WX--------------------------
WDir130150180170170200190130140170130130130
WSpd8 11 12 12 12 8 6 7 8 8 8 10 9
WGst-- -- -- -- -- -- -- -- -- -- -- -- --
Raw hourly METARs
KSTL 191351Z 13008KT 10SM FEW130 BKN250 06/M03 A3041 RMK AO2 SLP304 T00561033
KSTL 191451Z 15011KT 10SM FEW130 BKN250 08/M04 A3042 RMK AO2 SLP306 T00831039 51008
KSTL 191551Z 18012KT 10SM FEW150 BKN250 10/M05 A3041 RMK AO2 SLP303 T01001050
KSTL 191651Z 17012KT 10SM FEW150 OVC230 11/M04 A3040 RMK AO2 SLP297 T01111039
KSTL 191751Z 17012KT 10SM BKN100 OVC230 12/M04 A3039 RMK AO2 SLP295 T01171039 10128 20006 58010
KSTL 191851Z 20008KT 10SM BKN080 OVC110 12/M03 A3036 RMK AO2 SLP287 T01171033
KSTL 191951Z 19006KT 10SM OVC070 12/M03 A3033 RMK AO2 SLP277 T01171028
KSTL 192051Z 13007KT 10SM OVC065 13/M03 A3030 RMK AO2 SLP266 T01281028 58027
KSTL 192151Z 14008KT 10SM BKN060 OVC250 13/M03 A3028 RMK AO2 SLP261 T01331028
KSTL 192251Z 17008KT 10SM FEW065 BKN120 OVC250 13/M03 A3027 RMK AO2 SLP256 T01331028
KSTL 192351Z 13008KT 10SM BKN055 BKN075 OVC110 12/M02 A3027 RMK AO2 SLP256 T01171022 10133 20111 56012
KSTL 200051Z 13010KT 10SM FEW055 FEW090 OVC110 12/M02 A3025 RMK AO2 RAB09E24 SLP250 P0000 T01171017
KSTL 200151Z 13009KT 10SM OVC150 11/M01 A3025 RMK AO2 SLP246 T01061011



Page loaded:  02:59 UTC  |   07:59 PM Pacific  |   08:59 PM Mountain  |   09:59 PM Central  |   10:59 PM Eastern

 

ADVISORIES

FORECASTS

FORECASTS

OBSERVATIONS

USER TOOLS

ABOUT US